Terminal Aerodrome Forecast
Issued by NWS

Home | Current Version | Previous Version | Text Only | Print | Product List | Glossary On
Versions: 1 2 3 4 5 6 7 8 9 10 11 12 13 14 15
650
FTUS41 KCAR 291722
TAFPQI
TAF
KPQI 291722Z 2918/3018 31010KT P6SM SKC
     FM300000 34003KT P6SM SKC=

USA.gov is the U.S. government's official web portal to all federal, state and local government web resources and services.